createdAt,value
2023-04-15T00:01:37.329Z,5.83
2023-04-15T00:04:04.744Z,5.78
2023-04-15T00:06:31.480Z,5.80
2023-04-15T00:08:58.546Z,5.76
2023-04-15T00:11:25.397Z,5.72
2023-04-15T00:13:51.959Z,5.68
2023-04-15T00:16:18.623Z,5.65
2023-04-15T00:18:45.336Z,5.60
2023-04-15T00:21:12.008Z,5.55
2023-04-15T00:23:38.712Z,5.51
2023-04-15T00:26:05.425Z,5.49
2023-04-15T00:28:32.265Z,5.49
2023-04-15T00:30:59.421Z,5.50
2023-04-15T00:33:26.280Z,5.46
2023-04-15T00:35:53.754Z,5.48
2023-04-15T00:38:20.571Z,5.46
2023-04-15T00:40:47.365Z,5.46
2023-04-15T00:43:14.040Z,5.48
2023-04-15T00:45:41.286Z,5.47
2023-04-15T00:48:09.612Z,5.47
2023-04-15T00:50:36.314Z,5.51
2023-04-15T00:53:02.993Z,5.53
2023-04-15T00:55:29.675Z,5.53
2023-04-15T00:57:57.758Z,5.55
2023-04-15T01:00:24.897Z,5.55
2023-04-15T01:02:51.735Z,5.58
2023-04-15T01:05:19.564Z,5.63
2023-04-15T01:07:47.906Z,5.65
2023-04-15T01:10:14.763Z,5.69
2023-04-15T01:12:41.548Z,5.74
2023-04-15T01:15:09.529Z,5.78
2023-04-15T01:17:36.495Z,5.80
2023-04-15T01:20:03.379Z,5.87
2023-04-15T01:22:30.320Z,5.88
2023-04-15T01:25:06.324Z,5.96
2023-04-15T01:27:35.362Z,5.98
2023-04-15T01:30:05.348Z,6.03
2023-04-15T01:32:34.306Z,6.11
2023-04-15T01:35:00.956Z,6.17
2023-04-15T01:37:29.613Z,6.20
2023-04-15T01:39:57.381Z,6.26
2023-04-15T01:42:24.529Z,6.31
2023-04-15T01:44:51.167Z,6.34
2023-04-15T01:47:17.832Z,6.39
2023-04-15T01:49:44.404Z,6.42
2023-04-15T01:52:10.997Z,6.46
2023-04-15T01:54:37.642Z,6.46
2023-04-15T01:57:04.954Z,6.48
2023-04-15T01:59:32.248Z,6.47
2023-04-15T02:01:59.945Z,6.46
2023-04-15T02:04:26.782Z,6.45
2023-04-15T02:06:53.487Z,6.46
2023-04-15T02:09:20.100Z,6.47
2023-04-15T02:11:46.828Z,6.44
2023-04-15T02:14:13.447Z,6.48
2023-04-15T02:16:40.199Z,6.49
2023-04-15T02:19:06.804Z,6.50
2023-04-15T02:21:33.467Z,6.54
2023-04-15T02:24:00.102Z,6.53
2023-04-15T02:26:26.713Z,6.54
2023-04-15T02:28:56.318Z,6.59
2023-04-15T02:31:23.014Z,6.59
2023-04-15T02:33:49.645Z,6.58
2023-04-15T02:36:16.354Z,6.59
2023-04-15T02:38:43.417Z,6.62
2023-04-15T02:41:10.662Z,6.67
2023-04-15T02:43:38.106Z,6.65
2023-04-15T02:46:04.796Z,6.65
2023-04-15T02:48:31.499Z,6.70
2023-04-15T02:51:20.022Z,6.75
2023-04-15T02:53:47.606Z,6.73
2023-04-15T02:56:15.500Z,6.80
2023-04-15T02:58:43.144Z,6.83
2023-04-15T03:01:12.454Z,6.89
2023-04-15T03:03:39.170Z,6.92
2023-04-15T03:06:06.196Z,6.97
2023-04-15T03:08:32.784Z,7.03
2023-04-15T03:11:00.989Z,7.09
2023-04-15T03:13:27.674Z,7.20
2023-04-15T03:15:54.491Z,7.21
2023-04-15T03:18:21.623Z,7.26
2023-04-15T03:20:48.259Z,7.23
2023-04-15T03:23:14.984Z,7.29
2023-04-15T03:25:45.187Z,7.31
2023-04-15T03:28:12.105Z,7.36
2023-04-15T03:30:38.715Z,7.31
2023-04-15T03:33:05.364Z,7.31
2023-04-15T03:35:31.964Z,7.41
2023-04-15T03:37:58.589Z,7.46
2023-04-15T03:40:25.622Z,7.47
2023-04-15T03:42:52.208Z,7.45
2023-04-15T03:45:24.565Z,7.53
2023-04-15T03:47:51.772Z,7.57
2023-04-15T03:50:18.531Z,7.59
2023-04-15T03:52:45.788Z,7.53
2023-04-15T03:55:12.652Z,7.54
2023-04-15T03:57:39.831Z,7.59
2023-04-15T04:00:07.755Z,7.63
2023-04-15T04:02:34.507Z,7.65
2023-04-15T04:05:01.216Z,7.71
2023-04-15T04:07:27.878Z,7.71
2023-04-15T04:09:56.855Z,7.72
2023-04-15T04:12:23.633Z,7.68
2023-04-15T04:14:50.550Z,7.70
2023-04-15T04:17:17.250Z,7.73
2023-04-15T04:19:43.919Z,7.77
2023-04-15T04:22:10.698Z,7.82
2023-04-15T04:24:37.465Z,7.81
2023-04-15T04:27:04.065Z,7.89
2023-04-15T04:29:31.006Z,7.95
2023-04-15T04:31:57.667Z,7.92
2023-04-15T04:34:24.300Z,7.91
2023-04-15T04:36:51.068Z,7.92
2023-04-15T04:39:17.745Z,7.96
2023-04-15T04:41:44.935Z,7.93
2023-04-15T04:44:11.775Z,7.94
2023-04-15T04:46:38.478Z,7.90
2023-04-15T04:49:05.212Z,7.85
2023-04-15T04:51:32.297Z,7.89
2023-04-15T04:53:58.988Z,7.94
2023-04-15T04:56:25.747Z,7.97
2023-04-15T04:58:52.658Z,8.00
2023-04-15T05:01:19.636Z,8.05
2023-04-15T05:03:46.758Z,8.07
2023-04-15T05:06:13.445Z,8.09
2023-04-15T05:08:43.940Z,8.13
2023-04-15T05:11:10.516Z,8.16
2023-04-15T05:13:38.836Z,8.21
2023-04-15T05:16:06.515Z,8.25
2023-04-15T05:18:33.378Z,8.37
2023-04-15T05:21:00.489Z,8.32
2023-04-15T05:23:27.538Z,8.35
2023-04-15T05:25:54.230Z,8.42
2023-04-15T05:28:21.280Z,8.45
2023-04-15T05:30:48.036Z,8.47
2023-04-15T05:33:14.834Z,8.42
2023-04-15T05:35:41.500Z,8.41
2023-04-15T05:38:08.373Z,8.45
2023-04-15T05:40:35.145Z,8.43
2023-04-15T05:43:01.813Z,8.27
2023-04-15T05:45:28.440Z,8.24
2023-04-15T05:47:55.109Z,8.17
2023-04-15T05:50:21.767Z,8.08
2023-04-15T05:52:50.308Z,8.08
2023-04-15T05:55:17.304Z,8.03
2023-04-15T05:57:43.959Z,8.01
2023-04-15T06:00:14.606Z,8.06
2023-04-15T06:02:41.961Z,8.05
2023-04-15T06:05:10.052Z,8.07
2023-04-15T06:07:37.525Z,8.07
2023-04-15T06:10:05.043Z,8.07
2023-04-15T06:12:31.903Z,8.10
2023-04-15T06:15:00.024Z,8.11
2023-04-15T06:17:27.216Z,8.17
2023-04-15T06:19:55.874Z,8.17
2023-04-15T06:22:23.670Z,8.17
2023-04-15T06:24:51.470Z,8.08
2023-04-15T06:27:18.136Z,8.08
2023-04-15T06:29:44.951Z,8.03
2023-04-15T06:32:12.369Z,7.97
2023-04-15T06:34:39.254Z,7.96
2023-04-15T06:37:06.478Z,7.88
2023-04-15T06:39:33.340Z,7.95
2023-04-15T06:42:04.558Z,7.92
2023-04-15T06:44:33.291Z,7.85
2023-04-15T06:47:00.515Z,7.75
2023-04-15T06:49:27.140Z,7.76
2023-04-15T06:51:56.535Z,7.82
2023-04-15T06:54:29.111Z,7.91
2023-04-15T06:56:55.837Z,7.84
2023-04-15T06:59:22.456Z,7.77
2023-04-15T07:01:49.175Z,7.86
2023-04-15T07:04:15.825Z,7.87
2023-04-15T07:06:42.985Z,7.92
2023-04-15T07:09:09.946Z,7.96
2023-04-15T07:11:36.708Z,8.10
2023-04-15T07:14:03.401Z,8.22
2023-04-15T07:16:30.223Z,8.35
2023-04-15T07:18:57.283Z,8.41
2023-04-15T07:21:24.941Z,8.56
2023-04-15T07:23:52.073Z,8.59
2023-04-15T07:26:18.896Z,8.75
2023-04-15T07:28:46.514Z,8.83
2023-04-15T07:31:13.990Z,8.86
2023-04-15T07:33:40.775Z,8.96
2023-04-15T07:36:08.027Z,8.97
2023-04-15T07:38:34.764Z,8.98
2023-04-15T07:41:01.679Z,9.10
2023-04-15T07:43:28.522Z,9.20
2023-04-15T07:45:55.804Z,9.21
2023-04-15T07:48:22.424Z,9.36
2023-04-15T07:50:49.044Z,9.54
2023-04-15T07:53:19.226Z,9.61
2023-04-15T07:55:45.976Z,9.68
2023-04-15T07:58:12.565Z,9.69
2023-04-15T08:00:39.216Z,9.80
2023-04-15T08:03:06.085Z,9.80
2023-04-15T08:05:33.292Z,9.83
2023-04-15T08:08:00.189Z,9.79
2023-04-15T08:10:27.401Z,9.76
2023-04-15T08:12:55.155Z,9.81
2023-04-15T08:15:22.336Z,9.84
2023-04-15T08:17:49.080Z,9.85
2023-04-15T08:20:15.977Z,9.90
2023-04-15T08:22:42.721Z,9.89
2023-04-15T08:25:12.307Z,9.94
2023-04-15T08:27:38.970Z,9.97
2023-04-15T08:30:09.398Z,10.09
2023-04-15T08:32:38.006Z,10.21
2023-04-15T08:35:05.128Z,10.32
2023-04-15T08:37:32.145Z,10.36
2023-04-15T08:39:58.748Z,10.45
2023-04-15T08:42:32.623Z,10.57
2023-04-15T08:45:05.231Z,10.65
2023-04-15T08:47:34.608Z,10.75
2023-04-15T08:50:04.557Z,10.90
2023-04-15T08:52:32.401Z,11.01
2023-04-15T08:55:02.268Z,11.11
2023-04-15T08:57:29.600Z,11.18
2023-04-15T08:59:57.633Z,11.24
2023-04-15T09:02:28.671Z,11.38
2023-04-15T09:04:55.321Z,11.50
2023-04-15T09:07:22.007Z,11.59
2023-04-15T09:09:48.883Z,11.59
2023-04-15T09:12:17.039Z,11.64
2023-04-15T09:14:47.004Z,11.73
2023-04-15T09:17:14.073Z,11.76
2023-04-15T09:19:43.448Z,11.75
2023-04-15T09:22:10.088Z,11.77
2023-04-15T09:24:39.543Z,11.76
2023-04-15T09:27:11.870Z,11.72
2023-04-15T09:29:39.037Z,11.64
2023-04-15T09:32:13.545Z,11.66
2023-04-15T09:34:40.236Z,11.64
2023-04-15T09:37:07.679Z,11.62
2023-04-15T09:39:52.072Z,11.67
2023-04-15T09:42:24.669Z,11.73
2023-04-15T09:44:53.237Z,11.81
2023-04-15T09:47:34.721Z,11.85
2023-04-15T09:50:02.617Z,11.89
2023-04-15T09:52:29.963Z,11.99
2023-04-15T09:55:00.935Z,12.04
2023-04-15T09:57:38.003Z,12.07
2023-04-15T10:00:08.296Z,12.16
2023-04-15T10:02:36.796Z,12.17
2023-04-15T10:05:04.276Z,12.19
2023-04-15T10:07:31.149Z,12.21
2023-04-15T10:09:59.931Z,12.22
2023-04-15T10:12:27.768Z,12.29
2023-04-15T10:15:02.593Z,12.29
2023-04-15T10:17:33.774Z,12.36
2023-04-15T10:20:03.729Z,12.35
2023-04-15T10:22:31.574Z,12.41
2023-04-15T10:24:58.713Z,12.38
2023-04-15T10:27:25.730Z,12.44
2023-04-15T10:29:52.561Z,12.48
2023-04-15T10:32:21.930Z,12.48
2023-04-15T10:34:49.778Z,12.52
2023-04-15T10:37:21.805Z,12.49
2023-04-15T10:39:48.890Z,12.51
2023-04-15T10:42:17.625Z,12.57
2023-04-15T10:44:49.210Z,12.61
2023-04-15T10:47:19.599Z,12.56
2023-04-15T10:49:47.330Z,12.61
2023-04-15T10:52:16.768Z,12.63
2023-04-15T10:54:44.075Z,12.71
2023-04-15T10:57:22.897Z,12.74
2023-04-15T11:00:04.759Z,12.76
2023-04-15T11:02:56.629Z,12.68
2023-04-15T11:05:41.777Z,12.69
2023-04-15T11:08:09.983Z,12.66
2023-04-15T11:10:36.689Z,12.59
2023-04-15T11:13:26.860Z,12.64
2023-04-15T11:15:58.387Z,12.68
2023-04-15T11:18:28.678Z,12.70
2023-04-15T11:20:58.237Z,12.73
2023-04-15T11:23:34.271Z,12.83
2023-04-15T11:26:03.879Z,12.89
2023-04-15T11:28:32.248Z,12.91
2023-04-15T11:30:59.266Z,12.92
2023-04-15T11:33:26.145Z,12.88
2023-04-15T11:35:56.722Z,12.84
2023-04-15T11:38:23.378Z,12.70
2023-04-15T11:40:51.566Z,12.70
2023-04-15T11:43:22.905Z,12.75
2023-04-15T11:45:53.878Z,12.78
2023-04-15T11:48:23.156Z,12.79
2023-04-15T11:50:57.556Z,12.83
2023-04-15T11:53:25.113Z,12.85
2023-04-15T11:55:53.792Z,12.90
2023-04-15T11:58:23.456Z,12.88
2023-04-15T12:00:57.862Z,12.93
2023-04-15T12:03:28.850Z,12.95
2023-04-15T12:06:21.459Z,12.96
2023-04-15T12:09:07.777Z,12.91
2023-04-15T12:11:37.465Z,12.79
2023-04-15T12:14:22.744Z,12.88
2023-04-15T12:16:54.109Z,12.96
2023-04-15T12:19:30.568Z,12.98
2023-04-15T12:22:02.683Z,13.06
2023-04-15T12:24:35.154Z,13.17
2023-04-15T12:27:12.783Z,13.23
2023-04-15T12:29:41.817Z,13.33
2023-04-15T12:32:09.831Z,13.41
2023-04-15T12:34:44.770Z,13.48
2023-04-15T12:37:13.304Z,13.51
2023-04-15T12:39:42.283Z,13.56
2023-04-15T12:42:09.846Z,13.53
2023-04-15T12:44:37.416Z,13.48
2023-04-15T12:47:04.395Z,13.47
2023-04-15T12:49:32.910Z,13.51
2023-04-15T12:52:01.141Z,13.44
2023-04-15T12:54:28.765Z,13.46
2023-04-15T12:56:55.966Z,13.45
2023-04-15T12:59:24.224Z,13.49
2023-04-15T13:01:52.520Z,13.49
2023-04-15T13:04:20.905Z,13.45
2023-04-15T13:06:47.876Z,13.39
2023-04-15T13:09:15.982Z,13.48
2023-04-15T13:11:42.859Z,13.53
2023-04-15T13:14:13.275Z,13.60
2023-04-15T13:16:40.507Z,13.58
2023-04-15T13:19:07.508Z,13.56
2023-04-15T13:21:35.989Z,13.55
2023-04-15T13:24:04.252Z,13.50
2023-04-15T13:26:31.904Z,13.52
2023-04-15T13:28:58.737Z,13.45
2023-04-15T13:31:25.597Z,13.43
2023-04-15T13:33:52.275Z,13.39
2023-04-15T13:36:18.902Z,13.43
2023-04-15T13:38:45.818Z,13.39
2023-04-15T13:41:12.447Z,13.35
2023-04-15T13:43:39.098Z,13.30
2023-04-15T13:46:06.008Z,13.18
2023-04-15T13:48:34.566Z,13.16
2023-04-15T13:51:01.219Z,13.10
2023-04-15T13:53:37.794Z,13.12
2023-04-15T13:56:10.094Z,13.17
2023-04-15T13:58:37.880Z,13.16
2023-04-15T14:01:07.632Z,13.13
2023-04-15T14:03:38.334Z,13.12
2023-04-15T14:06:06.536Z,13.00
2023-04-15T14:08:33.415Z,12.96
2023-04-15T14:11:00.288Z,12.82
2023-04-15T14:13:26.929Z,12.76
2023-04-15T14:15:53.651Z,12.63
2023-04-15T14:18:20.712Z,12.67
2023-04-15T14:20:47.366Z,12.59
2023-04-15T14:23:14.113Z,12.50
2023-04-15T14:25:41.099Z,12.38
2023-04-15T14:28:07.743Z,12.28
2023-04-15T14:30:34.506Z,12.27
2023-04-15T14:33:01.255Z,12.21
2023-04-15T14:35:28.879Z,12.18
2023-04-15T14:37:55.852Z,12.22
2023-04-15T14:40:26.027Z,12.14
2023-04-15T14:42:52.597Z,12.13
2023-04-15T14:45:19.233Z,12.07
2023-04-15T14:47:46.092Z,12.08
2023-04-15T14:50:14.969Z,12.07
2023-04-15T14:52:41.739Z,12.05
2023-04-15T14:55:12.265Z,12.06
2023-04-15T14:57:40.156Z,12.00
2023-04-15T15:00:08.693Z,11.90
2023-04-15T15:02:39.615Z,11.77
2023-04-15T15:05:07.611Z,11.71
2023-04-15T15:07:34.579Z,11.75
2023-04-15T15:10:01.291Z,11.76
2023-04-15T15:12:28.065Z,11.72
2023-04-15T15:14:57.544Z,11.71
2023-04-15T15:17:24.321Z,11.67
2023-04-15T15:19:51.142Z,11.72
2023-04-15T15:22:19.585Z,11.70
2023-04-15T15:24:47.594Z,11.74
2023-04-15T15:27:14.313Z,11.76
2023-04-15T15:29:40.989Z,11.78
2023-04-15T15:32:08.009Z,11.82
2023-04-15T15:34:34.605Z,11.81
2023-04-15T15:37:01.381Z,11.78
2023-04-15T15:39:28.242Z,11.78
2023-04-15T15:41:55.194Z,11.82
2023-04-15T15:44:21.881Z,11.84
2023-04-15T15:46:48.754Z,11.85
2023-04-15T15:49:15.562Z,11.84
2023-04-15T15:51:42.275Z,11.87
2023-04-15T15:54:08.881Z,11.83
2023-04-15T15:56:38.452Z,11.75
2023-04-15T15:59:05.563Z,11.75
2023-04-15T16:01:32.640Z,11.78
2023-04-15T16:03:59.659Z,11.81
2023-04-15T16:06:27.203Z,11.86
2023-04-15T16:08:53.802Z,11.78
2023-04-15T16:11:20.467Z,11.73
2023-04-15T16:13:47.089Z,11.80
2023-04-15T16:16:13.784Z,11.80
2023-04-15T16:18:40.634Z,11.80
2023-04-15T16:21:09.825Z,11.84
2023-04-15T16:23:37.076Z,11.80
2023-04-15T16:26:04.067Z,11.86
2023-04-15T16:28:30.795Z,11.83
2023-04-15T16:30:57.519Z,11.85
2023-04-15T16:33:24.214Z,11.77
2023-04-15T16:35:51.520Z,11.71
2023-04-15T16:38:18.240Z,11.72
2023-04-15T16:40:44.870Z,11.68
2023-04-15T16:43:13.943Z,11.62
2023-04-15T16:45:40.812Z,11.61
2023-04-15T16:48:07.537Z,11.57
2023-04-15T16:50:34.208Z,11.53
2023-04-15T16:53:01.445Z,11.49
2023-04-15T16:55:28.121Z,11.58
2023-04-15T16:58:02.926Z,11.48
2023-04-15T17:00:31.762Z,11.48
2023-04-15T17:02:59.440Z,11.54
2023-04-15T17:05:29.414Z,11.35
2023-04-15T17:07:56.310Z,11.19
2023-04-15T17:10:23.502Z,11.17
2023-04-15T17:12:52.172Z,11.02
2023-04-15T17:15:19.660Z,10.97
2023-04-15T17:17:46.354Z,10.98
2023-04-15T17:20:13.126Z,10.91
2023-04-15T17:22:42.601Z,10.79
2023-04-15T17:25:09.585Z,10.74
2023-04-15T17:27:36.406Z,10.76
2023-04-15T17:30:03.157Z,10.68
2023-04-15T17:32:34.340Z,10.70
2023-04-15T17:35:05.631Z,10.72
2023-04-15T17:37:35.051Z,10.66
2023-04-15T17:40:02.473Z,10.66
2023-04-15T17:42:29.132Z,10.64
2023-04-15T17:44:55.925Z,10.59
2023-04-15T17:47:22.563Z,10.58
2023-04-15T17:49:49.154Z,10.55
2023-04-15T17:52:15.791Z,10.52
2023-04-15T17:54:44.486Z,10.50
2023-04-15T17:57:11.302Z,10.51
2023-04-15T17:59:38.097Z,10.45
2023-04-15T18:02:04.746Z,10.42
2023-04-15T18:04:31.722Z,10.40
2023-04-15T18:06:58.535Z,10.39
2023-04-15T18:09:25.410Z,10.35
2023-04-15T18:11:52.081Z,10.36
2023-04-15T18:14:33.081Z,10.31
2023-04-15T18:17:01.967Z,10.30
2023-04-15T18:19:29.458Z,10.25
2023-04-15T18:21:56.216Z,10.23
2023-04-15T18:24:22.935Z,10.19
2023-04-15T18:26:49.702Z,10.16
2023-04-15T18:29:16.556Z,10.15
2023-04-15T18:31:43.438Z,10.17
2023-04-15T18:34:10.459Z,10.12
2023-04-15T18:36:37.182Z,10.08
2023-04-15T18:39:04.633Z,10.04
2023-04-15T18:41:31.553Z,10.02
2023-04-15T18:43:58.182Z,10.02
2023-04-15T18:46:24.858Z,10.00
2023-04-15T18:48:51.576Z,10.05
2023-04-15T18:51:18.161Z,10.02
2023-04-15T18:53:44.788Z,10.02
2023-04-15T18:56:11.560Z,10.02
2023-04-15T18:59:19.273Z,9.96
2023-04-15T19:01:27.304Z,9.94
2023-04-15T19:03:54.000Z,9.93
2023-04-15T19:06:22.315Z,9.92
2023-04-15T19:08:49.080Z,9.93
2023-04-15T19:11:18.478Z,9.91
2023-04-15T19:13:45.077Z,9.87
2023-04-15T19:16:11.752Z,9.87
2023-04-15T19:18:38.398Z,9.82
2023-04-15T19:21:05.066Z,9.82
2023-04-15T19:23:32.182Z,9.82
2023-04-15T19:25:58.919Z,9.80
2023-04-15T19:28:28.176Z,9.79
2023-04-15T19:30:55.154Z,9.79
2023-04-15T19:33:21.890Z,9.83
2023-04-15T19:35:50.165Z,9.87
2023-04-15T19:38:17.210Z,9.83
2023-04-15T19:40:44.020Z,9.80
2023-04-15T19:43:10.784Z,9.76
2023-04-15T19:45:37.623Z,9.71
2023-04-15T19:48:06.255Z,9.72
2023-04-15T19:50:33.075Z,9.79
2023-04-15T19:52:59.771Z,9.76
2023-04-15T19:55:26.440Z,9.74
2023-04-15T19:57:53.124Z,9.78
2023-04-15T20:00:22.635Z,9.74
2023-04-15T20:02:49.388Z,9.68
2023-04-15T20:05:16.134Z,9.71
2023-04-15T20:07:43.187Z,9.71
2023-04-15T20:10:13.264Z,9.68
2023-04-15T20:12:50.161Z,9.68
2023-04-15T20:15:19.172Z,9.64
2023-04-15T20:17:45.843Z,9.62
2023-04-15T20:20:12.533Z,9.65
2023-04-15T20:22:39.224Z,9.62
2023-04-15T20:25:06.513Z,9.57
2023-04-15T20:27:33.107Z,9.65
2023-04-15T20:29:59.840Z,9.68
2023-04-15T20:32:28.297Z,9.64
2023-04-15T20:34:55.185Z,9.64
2023-04-15T20:37:22.501Z,9.60
2023-04-15T20:39:49.261Z,9.63
2023-04-15T20:42:15.936Z,9.62
2023-04-15T20:44:42.614Z,9.64
2023-04-15T20:47:09.296Z,9.63
2023-04-15T20:49:37.232Z,9.73
2023-04-15T20:52:05.857Z,9.70
2023-04-15T20:54:32.590Z,9.58
2023-04-15T20:56:59.290Z,9.56
2023-04-15T20:59:26.221Z,9.54
2023-04-15T21:01:52.978Z,9.54
2023-04-15T21:04:21.083Z,9.57
2023-04-15T21:06:48.148Z,9.57
2023-04-15T21:09:14.684Z,9.56
2023-04-15T21:11:57.576Z,9.53
2023-04-15T21:14:26.887Z,9.56
2023-04-15T21:16:53.797Z,9.59
2023-04-15T21:19:20.363Z,9.60
2023-04-15T21:21:46.931Z,9.62
2023-04-15T21:24:13.566Z,9.65
2023-04-15T21:26:40.141Z,9.66
2023-04-15T21:29:09.477Z,9.62
2023-04-15T21:31:37.978Z,9.61
2023-04-15T21:34:04.748Z,9.62
2023-04-15T21:36:32.014Z,9.61
2023-04-15T21:38:58.650Z,9.57
2023-04-15T21:41:25.791Z,9.60
2023-04-15T21:43:53.183Z,9.56
2023-04-15T21:46:23.388Z,9.58
2023-04-15T21:48:53.363Z,9.57
2023-04-15T21:51:20.302Z,9.56
2023-04-15T21:53:47.034Z,9.62
2023-04-15T21:56:13.661Z,9.66
2023-04-15T21:58:40.478Z,9.65
2023-04-15T22:01:09.202Z,9.71
2023-04-15T22:03:38.954Z,9.71
2023-04-15T22:06:05.655Z,9.75
2023-04-15T22:08:38.757Z,9.73
2023-04-15T22:11:26.604Z,9.66
2023-04-15T22:13:54.341Z,9.66
2023-04-15T22:16:21.294Z,9.67
2023-04-15T22:18:50.617Z,9.72
2023-04-15T22:21:17.298Z,9.73
2023-04-15T22:23:48.526Z,9.73
2023-04-15T22:26:15.459Z,9.74
2023-04-15T22:28:42.271Z,9.73
2023-04-15T22:31:09.172Z,9.77
2023-04-15T22:33:36.121Z,9.78
2023-04-15T22:36:02.823Z,9.79
2023-04-15T22:38:29.429Z,9.79
2023-04-15T22:40:56.144Z,9.74
2023-04-15T22:43:23.099Z,9.79
2023-04-15T22:45:50.787Z,9.73
2023-04-15T22:48:18.366Z,9.71
2023-04-15T22:50:45.169Z,9.67
2023-04-15T22:53:11.824Z,9.70
2023-04-15T22:55:38.511Z,9.70
2023-04-15T22:58:05.079Z,9.71
2023-04-15T23:00:31.657Z,9.70
2023-04-15T23:02:58.422Z,9.69
2023-04-15T23:05:25.154Z,9.65
2023-04-15T23:07:51.820Z,9.64
2023-04-15T23:10:18.415Z,9.62
2023-04-15T23:12:45.043Z,9.62
2023-04-15T23:15:14.849Z,9.64
2023-04-15T23:17:42.874Z,9.58
2023-04-15T23:20:10.033Z,9.55
2023-04-15T23:22:37.836Z,9.53
2023-04-15T23:25:05.855Z,9.49
2023-04-15T23:27:32.493Z,9.47
2023-04-15T23:29:59.118Z,9.45
2023-04-15T23:32:26.588Z,9.44
2023-04-15T23:34:53.929Z,9.42
2023-04-15T23:37:20.715Z,9.41
2023-04-15T23:39:49.463Z,9.43
2023-04-15T23:42:16.078Z,9.44
2023-04-15T23:44:42.664Z,9.44
2023-04-15T23:47:09.378Z,9.43
2023-04-15T23:49:37.068Z,9.41
2023-04-15T23:52:04.031Z,9.40
2023-04-15T23:54:30.688Z,9.40
2023-04-15T23:56:57.329Z,9.41
2023-04-15T23:59:24.092Z,9.42
